createdAt,value
2022-10-31T00:01:14.644Z,12.97
2022-10-31T00:03:41.523Z,15.83
2022-10-31T00:06:08.536Z,14.80
2022-10-31T00:08:35.491Z,18.83
2022-10-31T00:11:02.368Z,23.73
2022-10-31T00:13:29.222Z,18.13
2022-10-31T00:15:55.957Z,17.17
2022-10-31T00:18:22.758Z,17.80
2022-10-31T00:20:49.471Z,13.77
2022-10-31T00:23:16.214Z,15.40
2022-10-31T00:25:42.983Z,16.90
2022-10-31T00:28:12.665Z,14.50
2022-10-31T00:30:39.665Z,13.03
2022-10-31T00:33:06.444Z,16.40
2022-10-31T00:35:33.668Z,14.00
2022-10-31T00:38:00.678Z,14.73
2022-10-31T00:40:27.599Z,14.17
2022-10-31T00:42:54.401Z,15.87
2022-10-31T00:45:21.195Z,20.73
2022-10-31T00:47:47.903Z,13.53
2022-10-31T00:50:14.761Z,20.90
2022-10-31T00:52:41.503Z,18.23
2022-10-31T00:55:08.376Z,17.97
2022-10-31T00:57:35.235Z,17.60
2022-10-31T01:00:02.030Z,22.63
2022-10-31T01:02:28.903Z,13.20
2022-10-31T01:04:55.636Z,17.30
2022-10-31T01:07:22.401Z,17.23
2022-10-31T01:09:49.160Z,16.13
2022-10-31T01:12:16.029Z,19.53
2022-10-31T01:14:46.469Z,16.97
2022-10-31T01:17:14.393Z,19.83
2022-10-31T01:19:41.227Z,18.17
2022-10-31T01:22:08.019Z,16.00
2022-10-31T01:24:34.772Z,17.77
2022-10-31T01:27:02.012Z,19.63
2022-10-31T01:29:28.747Z,20.43
2022-10-31T01:31:55.475Z,20.40
2022-10-31T01:34:22.252Z,17.03
2022-10-31T01:36:52.208Z,18.07
2022-10-31T01:39:22.822Z,13.20
2022-10-31T01:41:52.674Z,17.27
2022-10-31T01:44:19.340Z,17.70
2022-10-31T01:46:52.363Z,17.97
2022-10-31T01:49:33.213Z,11.07
2022-10-31T01:52:10.437Z,15.97
2022-10-31T01:54:54.776Z,14.07
2022-10-31T01:57:23.365Z,16.07
2022-10-31T01:59:55.041Z,15.40
2022-10-31T02:02:22.073Z,18.80
2022-10-31T02:04:49.068Z,15.80
2022-10-31T02:07:21.994Z,13.50
2022-10-31T02:09:49.985Z,17.60
2022-10-31T02:12:18.671Z,13.30
2022-10-31T02:14:45.652Z,14.87
2022-10-31T02:17:12.438Z,15.80
2022-10-31T02:20:05.082Z,15.70
2022-10-31T02:22:53.368Z,13.27
2022-10-31T02:25:41.203Z,17.20
2022-10-31T02:28:50.539Z,16.93
2022-10-31T02:31:34.647Z,12.53
2022-10-31T02:34:20.349Z,15.13
2022-10-31T02:36:57.770Z,10.40
2022-10-31T02:39:30.115Z,12.93
2022-10-31T02:42:15.824Z,13.90
2022-10-31T02:45:19.690Z,17.27
2022-10-31T02:47:49.761Z,10.23
2022-10-31T02:50:25.120Z,15.80
2022-10-31T02:52:53.193Z,14.23
2022-10-31T02:55:26.013Z,16.73
2022-10-31T02:57:56.703Z,16.03
2022-10-31T03:00:23.825Z,15.23
2022-10-31T03:03:11.734Z,9.97
2022-10-31T03:06:07.347Z,16.17
2022-10-31T03:08:43.210Z,14.90
2022-10-31T03:11:11.186Z,12.57
2022-10-31T03:13:47.473Z,17.63
2022-10-31T03:16:26.524Z,18.03
2022-10-31T03:19:05.194Z,15.80
2022-10-31T03:21:50.495Z,14.80
2022-10-31T03:24:17.806Z,17.10
2022-10-31T03:26:51.052Z,16.03
2022-10-31T03:29:22.740Z,14.33
2022-10-31T03:31:58.245Z,12.87
2022-10-31T03:34:25.418Z,13.57
2022-10-31T03:36:56.090Z,16.07
2022-10-31T03:39:24.467Z,14.20
2022-10-31T03:42:03.964Z,15.50
2022-10-31T03:44:32.058Z,12.93
2022-10-31T03:46:59.035Z,12.00
2022-10-31T03:49:26.250Z,12.40
2022-10-31T03:52:02.897Z,17.70
2022-10-31T03:54:37.830Z,13.80
2022-10-31T03:57:14.983Z,13.57
2022-10-31T04:00:05.935Z,14.57
2022-10-31T04:02:36.433Z,13.73
2022-10-31T04:05:03.904Z,18.70
2022-10-31T04:07:35.685Z,18.90
2022-10-31T04:10:07.207Z,14.57
2022-10-31T04:12:35.383Z,12.63
2022-10-31T04:15:05.014Z,16.97
2022-10-31T04:17:37.054Z,14.33
2022-10-31T04:20:04.208Z,11.87
2022-10-31T04:22:30.946Z,15.37
2022-10-31T04:24:57.817Z,13.47
2022-10-31T04:27:24.515Z,15.50
2022-10-31T04:29:51.328Z,17.30
2022-10-31T04:32:18.634Z,13.13
2022-10-31T04:34:45.395Z,21.03
2022-10-31T04:37:12.191Z,16.87
2022-10-31T04:39:38.942Z,16.73
2022-10-31T04:42:05.836Z,20.40
2022-10-31T04:44:32.571Z,18.83
2022-10-31T04:46:59.292Z,13.10
2022-10-31T04:49:25.978Z,14.43
2022-10-31T04:51:52.695Z,19.67
2022-10-31T04:54:19.446Z,15.83
2022-10-31T04:56:46.169Z,19.60
2022-10-31T04:59:12.899Z,16.67
2022-10-31T05:01:39.726Z,21.73
2022-10-31T05:04:06.556Z,21.10
2022-10-31T05:06:33.314Z,20.63
2022-10-31T05:09:00.086Z,15.77
2022-10-31T05:11:26.859Z,21.83
2022-10-31T05:13:53.566Z,20.93
2022-10-31T05:16:20.270Z,24.17
2022-10-31T05:18:47.033Z,19.87
2022-10-31T05:21:13.805Z,23.93
2022-10-31T05:23:44.454Z,20.07
2022-10-31T05:26:14.318Z,19.80
2022-10-31T05:28:41.023Z,18.83
2022-10-31T05:31:07.803Z,20.40
2022-10-31T05:33:34.559Z,18.63
2022-10-31T05:36:01.263Z,18.60
2022-10-31T05:38:27.956Z,19.93
2022-10-31T05:40:59.058Z,21.40
2022-10-31T05:43:25.750Z,24.20
2022-10-31T05:45:56.882Z,19.27
2022-10-31T05:48:23.824Z,21.27
2022-10-31T05:50:50.761Z,19.50
2022-10-31T05:53:17.686Z,21.57
2022-10-31T05:55:44.901Z,23.37
2022-10-31T05:58:12.222Z,20.70
2022-10-31T06:00:38.958Z,20.20
2022-10-31T06:05:36.270Z,21.27
2022-10-31T06:08:03.727Z,14.53
2022-10-31T06:10:30.811Z,18.50
2022-10-31T06:12:57.600Z,19.13
2022-10-31T06:15:24.934Z,22.70
2022-10-31T06:18:03.687Z,14.37
2022-10-31T06:20:31.545Z,22.87
2022-10-31T06:22:58.615Z,17.27
2022-10-31T06:25:25.878Z,23.57
2022-10-31T06:27:52.695Z,22.07
2022-10-31T06:30:19.736Z,16.03
2022-10-31T06:32:46.494Z,18.93
2022-10-31T06:35:13.198Z,18.50
2022-10-31T06:37:40.048Z,23.80
2022-10-31T06:40:07.164Z,25.17
2022-10-31T06:42:33.911Z,20.80
2022-10-31T06:45:00.642Z,22.20
2022-10-31T06:47:27.358Z,21.80
2022-10-31T06:49:54.050Z,20.60
2022-10-31T06:52:20.925Z,15.60
2022-10-31T06:54:47.821Z,20.60
2022-10-31T06:57:14.575Z,17.77
2022-10-31T06:59:41.430Z,21.13
2022-10-31T07:02:11.151Z,18.17
2022-10-31T07:04:38.074Z,20.70
2022-10-31T07:07:05.038Z,21.43
2022-10-31T07:09:31.905Z,19.27
2022-10-31T07:11:58.751Z,19.67
2022-10-31T07:14:25.505Z,24.37
2022-10-31T07:16:52.488Z,15.07
2022-10-31T07:19:19.936Z,17.93
2022-10-31T07:21:46.832Z,19.80
2022-10-31T07:24:13.612Z,16.30
2022-10-31T07:26:40.386Z,20.00
2022-10-31T07:29:07.329Z,17.13
2022-10-31T07:31:34.169Z,18.33
2022-10-31T07:34:00.958Z,18.23
2022-10-31T07:36:27.710Z,16.97
2022-10-31T07:38:54.506Z,19.07
2022-10-31T07:41:22.245Z,15.00
2022-10-31T07:43:49.119Z,17.43
2022-10-31T07:46:15.914Z,15.73
2022-10-31T07:48:43.118Z,19.97
2022-10-31T07:51:10.567Z,20.73
2022-10-31T07:53:37.606Z,19.67
2022-10-31T07:56:04.544Z,16.20
2022-10-31T07:58:31.347Z,13.77
2022-10-31T08:00:58.920Z,17.60
2022-10-31T08:03:25.955Z,14.13
2022-10-31T08:05:52.834Z,19.57
2022-10-31T08:08:19.621Z,15.20
2022-10-31T08:10:46.449Z,11.33
2022-10-31T08:13:14.948Z,20.40
2022-10-31T08:15:42.909Z,18.93
2022-10-31T08:18:17.035Z,16.87
2022-10-31T08:20:44.668Z,19.90
2022-10-31T08:23:12.752Z,16.33
2022-10-31T08:25:39.698Z,13.63
2022-10-31T08:28:08.054Z,16.43
2022-10-31T08:30:37.198Z,13.97
2022-10-31T08:33:11.401Z,16.80
2022-10-31T08:35:38.342Z,14.53
2022-10-31T08:38:05.454Z,20.50
2022-10-31T08:40:33.830Z,16.47
2022-10-31T08:43:07.102Z,13.47
2022-10-31T08:45:35.144Z,16.90
2022-10-31T08:48:07.216Z,15.70
2022-10-31T08:50:35.939Z,21.57
2022-10-31T08:53:07.908Z,19.03
2022-10-31T08:55:36.502Z,13.57
2022-10-31T08:58:04.804Z,21.80
2022-10-31T09:00:32.499Z,20.53
2022-10-31T09:03:01.120Z,14.57
2022-10-31T09:05:28.449Z,12.83
2022-10-31T09:07:59.505Z,13.50
2022-10-31T09:10:27.872Z,14.20
2022-10-31T09:13:21.670Z,13.90
2022-10-31T09:15:50.502Z,14.30
2022-10-31T09:18:20.191Z,17.03
2022-10-31T09:20:48.287Z,17.77
2022-10-31T09:23:20.570Z,24.27
2022-10-31T09:25:50.678Z,14.80
2022-10-31T09:28:20.641Z,15.93
2022-10-31T09:30:52.569Z,14.47
2022-10-31T09:33:20.065Z,12.43
2022-10-31T09:35:46.993Z,12.67
2022-10-31T09:38:19.932Z,10.87
2022-10-31T09:40:50.153Z,15.50
2022-10-31T09:43:26.300Z,16.77
2022-10-31T09:46:17.225Z,12.67
2022-10-31T09:49:05.492Z,9.40
2022-10-31T09:51:37.941Z,13.23
2022-10-31T09:54:17.897Z,12.13
2022-10-31T09:56:45.515Z,14.33
2022-10-31T09:59:27.292Z,15.10
2022-10-31T10:02:18.087Z,12.43
2022-10-31T10:04:50.588Z,9.63
2022-10-31T10:07:43.246Z,10.30
2022-10-31T10:10:22.930Z,14.07
2022-10-31T10:12:52.398Z,12.07
2022-10-31T10:16:00.157Z,14.30
2022-10-31T10:19:04.474Z,14.67
2022-10-31T10:21:31.228Z,10.37
2022-10-31T10:24:10.081Z,13.37
2022-10-31T10:26:41.182Z,12.53
2022-10-31T10:29:35.261Z,10.17
2022-10-31T10:32:25.320Z,16.87
2022-10-31T10:34:58.262Z,13.77
2022-10-31T10:37:35.129Z,16.87
2022-10-31T10:40:25.933Z,13.83
2022-10-31T10:43:23.791Z,11.37
2022-10-31T10:46:50.731Z,12.30
2022-10-31T10:49:37.877Z,12.40
2022-10-31T10:52:19.871Z,11.50
2022-10-31T10:55:18.899Z,11.13
2022-10-31T10:57:54.929Z,13.20
2022-10-31T11:00:26.403Z,9.80
2022-10-31T11:02:53.404Z,10.33
2022-10-31T11:05:31.380Z,11.63
2022-10-31T11:07:58.082Z,14.57
2022-10-31T11:10:25.141Z,14.70
2022-10-31T11:13:04.786Z,8.70
2022-10-31T11:15:37.151Z,9.87
2022-10-31T11:18:04.258Z,11.43
2022-10-31T11:20:35.720Z,9.63
2022-10-31T11:23:24.338Z,12.13
2022-10-31T11:26:04.510Z,9.83
2022-10-31T11:28:36.090Z,16.27
2022-10-31T11:31:14.491Z,10.33
2022-10-31T11:33:58.653Z,13.87
2022-10-31T11:36:28.721Z,10.30
2022-10-31T11:38:55.736Z,14.37
2022-10-31T11:41:33.379Z,10.23
2022-10-31T11:44:04.476Z,9.10
2022-10-31T11:46:34.062Z,10.37
2022-10-31T11:49:01.465Z,7.73
2022-10-31T11:51:32.242Z,8.23
2022-10-31T11:54:02.874Z,11.23
2022-10-31T11:56:43.632Z,7.93
2022-10-31T11:59:39.967Z,8.30
2022-10-31T12:02:19.709Z,9.90
2022-10-31T12:04:52.473Z,7.27
2022-10-31T12:07:19.360Z,10.53
2022-10-31T12:09:46.238Z,9.20
2022-10-31T12:12:21.975Z,9.23
2022-10-31T12:15:13.763Z,6.77
2022-10-31T12:18:11.922Z,8.03
2022-10-31T12:20:56.806Z,8.20
2022-10-31T12:23:23.446Z,9.57
2022-10-31T12:25:50.188Z,7.43
2022-10-31T12:28:47.213Z,12.57
2022-10-31T12:31:19.671Z,11.00
2022-10-31T12:33:58.134Z,8.30
2022-10-31T12:37:10.154Z,8.20
2022-10-31T12:40:01.118Z,8.53
2022-10-31T12:42:47.366Z,6.97
2022-10-31T12:45:34.314Z,9.87
2022-10-31T12:48:00.964Z,9.23
2022-10-31T12:50:51.370Z,12.57
2022-10-31T12:53:21.080Z,6.50
2022-10-31T12:56:09.045Z,8.80
2022-10-31T12:58:41.230Z,10.90
2022-10-31T13:01:16.002Z,6.33
2022-10-31T13:04:20.629Z,8.50
2022-10-31T13:07:09.251Z,6.30
2022-10-31T13:10:15.821Z,8.60
2022-10-31T13:12:44.110Z,11.43
2022-10-31T13:15:26.072Z,9.83
2022-10-31T13:18:16.342Z,8.77
2022-10-31T13:20:49.354Z,7.60
2022-10-31T13:23:49.136Z,5.50
2022-10-31T13:26:16.629Z,7.97
2022-10-31T13:29:00.340Z,6.30
2022-10-31T13:31:27.318Z,6.33
2022-10-31T13:34:05.902Z,4.93
2022-10-31T13:36:40.396Z,7.40
2022-10-31T13:39:28.658Z,6.63
2022-10-31T13:42:16.898Z,8.60
2022-10-31T13:48:29.850Z,6.13
2022-10-31T13:51:05.745Z,5.57
2022-10-31T13:54:06.310Z,6.43
2022-10-31T13:56:34.982Z,7.50
2022-10-31T13:59:04.746Z,7.97
2022-10-31T14:01:33.400Z,7.47
2022-10-31T14:04:29.573Z,6.87
2022-10-31T14:06:59.500Z,6.50
2022-10-31T14:09:40.010Z,7.10
2022-10-31T14:12:34.035Z,5.80
2022-10-31T14:15:15.657Z,6.60
2022-10-31T14:17:59.055Z,7.40
2022-10-31T14:20:34.217Z,5.13
2022-10-31T14:23:12.602Z,4.43
2022-10-31T14:25:39.777Z,7.80
2022-10-31T14:28:33.453Z,5.30
2022-10-31T14:31:01.553Z,6.57
2022-10-31T14:33:30.773Z,5.57
2022-10-31T14:36:07.916Z,6.23
2022-10-31T14:38:58.113Z,6.63
2022-10-31T14:41:36.412Z,7.03
2022-10-31T14:44:03.144Z,4.90
2022-10-31T14:47:02.577Z,7.77
2022-10-31T14:49:59.614Z,5.83
2022-10-31T14:52:26.564Z,6.97
2022-10-31T14:54:57.733Z,4.67
2022-10-31T14:57:32.049Z,7.73
2022-10-31T15:00:08.239Z,6.60
2022-10-31T15:02:59.210Z,8.57
2022-10-31T15:05:28.417Z,6.60
2022-10-31T15:07:58.807Z,6.60
2022-10-31T15:10:30.662Z,7.67
2022-10-31T15:13:08.969Z,7.73
2022-10-31T15:15:36.499Z,4.87
2022-10-31T15:18:05.684Z,5.33
2022-10-31T15:20:39.794Z,8.67
2022-10-31T15:23:11.444Z,5.30
2022-10-31T15:25:38.286Z,7.47
2022-10-31T15:28:22.168Z,7.50
2022-10-31T15:30:59.576Z,6.63
2022-10-31T15:33:37.880Z,5.63
2022-10-31T15:36:05.791Z,6.47
2022-10-31T15:38:33.762Z,6.63
2022-10-31T15:41:01.892Z,4.33
2022-10-31T15:43:37.188Z,7.13
2022-10-31T15:46:05.154Z,6.10
2022-10-31T15:48:32.973Z,4.93
2022-10-31T15:51:00.229Z,5.70
2022-10-31T15:53:49.367Z,5.00
2022-10-31T15:56:31.526Z,7.20
2022-10-31T15:59:00.528Z,6.13
2022-10-31T16:01:33.214Z,7.77
2022-10-31T16:04:12.006Z,6.13
2022-10-31T16:06:38.986Z,7.60
2022-10-31T16:09:23.812Z,8.80
2022-10-31T16:11:51.109Z,7.20
2022-10-31T16:14:25.953Z,5.73
2022-10-31T16:16:55.917Z,5.90
2022-10-31T16:19:34.942Z,4.97
2022-10-31T16:22:09.218Z,5.73
2022-10-31T16:24:47.506Z,6.33
2022-10-31T16:27:29.573Z,7.13
2022-10-31T16:30:02.718Z,7.73
2022-10-31T16:32:52.949Z,6.70
2022-10-31T16:35:25.701Z,5.53
2022-10-31T16:37:53.111Z,7.53
2022-10-31T16:40:21.787Z,10.07
2022-10-31T16:42:51.804Z,6.73
2022-10-31T16:45:26.565Z,3.93
2022-10-31T16:47:53.591Z,6.90
2022-10-31T16:50:25.230Z,7.80
2022-10-31T16:53:12.490Z,6.77
2022-10-31T16:55:46.221Z,8.77
2022-10-31T16:58:18.704Z,7.70
2022-10-31T17:00:45.942Z,7.33
2022-10-31T17:03:12.770Z,8.47
2022-10-31T17:05:39.812Z,8.93
2022-10-31T17:08:06.656Z,10.07
2022-10-31T17:10:33.753Z,9.07
2022-10-31T17:13:03.791Z,9.17
2022-10-31T17:15:39.146Z,9.60
2022-10-31T17:18:05.950Z,6.80
2022-10-31T17:20:33.174Z,8.80
2022-10-31T17:23:00.446Z,7.83
2022-10-31T17:25:30.323Z,9.00
2022-10-31T17:27:57.089Z,8.30
2022-10-31T17:30:24.074Z,6.53
2022-10-31T17:32:51.910Z,8.97
2022-10-31T17:35:19.237Z,10.93
2022-10-31T17:37:47.090Z,7.67
2022-10-31T17:40:16.806Z,8.13
2022-10-31T17:42:56.007Z,6.97
2022-10-31T17:45:24.719Z,8.43
2022-10-31T17:47:52.940Z,7.13
2022-10-31T17:50:24.856Z,8.17
2022-10-31T17:52:51.721Z,11.57
2022-10-31T17:55:18.916Z,8.47
2022-10-31T17:57:45.777Z,7.43
2022-10-31T18:00:15.716Z,8.27
2022-10-31T18:02:42.610Z,6.47
2022-10-31T18:05:10.271Z,5.93
2022-10-31T18:07:37.160Z,8.93
2022-10-31T18:10:04.893Z,6.70
2022-10-31T18:12:34.543Z,8.00
2022-10-31T18:15:01.298Z,7.97
2022-10-31T18:17:28.008Z,8.93
2022-10-31T18:19:54.732Z,9.70
2022-10-31T18:22:21.533Z,7.27
2022-10-31T18:24:48.285Z,10.77
2022-10-31T18:27:15.019Z,10.13
2022-10-31T18:29:41.840Z,9.93
2022-10-31T18:32:09.777Z,12.63
2022-10-31T18:34:37.160Z,8.13
2022-10-31T18:37:04.220Z,14.13
2022-10-31T18:39:31.011Z,11.20
2022-10-31T18:41:58.150Z,9.93
2022-10-31T18:44:25.894Z,16.43
2022-10-31T18:46:52.623Z,15.67
2022-10-31T18:49:22.680Z,14.03
2022-10-31T18:51:53.246Z,14.80
2022-10-31T18:54:20.164Z,20.10
2022-10-31T18:56:47.041Z,14.90
2022-10-31T18:59:13.854Z,17.90
2022-10-31T19:01:40.736Z,18.87
2022-10-31T19:04:07.802Z,21.57
2022-10-31T19:06:34.657Z,19.47
2022-10-31T19:09:04.506Z,21.80
2022-10-31T19:11:35.668Z,22.80
2022-10-31T19:14:03.056Z,25.57
2022-10-31T19:16:29.909Z,25.77
2022-10-31T19:19:00.032Z,25.77
2022-10-31T19:21:27.015Z,22.47
2022-10-31T19:23:56.206Z,23.67
2022-10-31T19:26:23.155Z,23.60
2022-10-31T19:28:49.876Z,26.57
2022-10-31T19:31:18.894Z,23.23
2022-10-31T19:33:46.531Z,23.80
2022-10-31T19:36:16.380Z,28.93
2022-10-31T19:38:45.142Z,26.10
2022-10-31T19:41:15.358Z,27.30
2022-10-31T19:43:42.273Z,26.53
2022-10-31T19:46:17.642Z,28.13
2022-10-31T19:48:49.785Z,31.10
2022-10-31T19:51:20.349Z,29.03
2022-10-31T19:53:49.521Z,32.30
2022-10-31T19:56:22.573Z,29.00
2022-10-31T19:58:49.316Z,31.73
2022-10-31T20:01:18.525Z,29.33
2022-10-31T20:03:46.819Z,29.63
2022-10-31T20:06:26.831Z,34.97
2022-10-31T20:08:56.079Z,32.73
2022-10-31T20:11:23.997Z,29.20
2022-10-31T20:13:50.736Z,30.37
2022-10-31T20:16:18.454Z,30.73
2022-10-31T20:18:47.166Z,32.87
2022-10-31T20:21:17.247Z,27.73
2022-10-31T20:23:44.585Z,29.13
2022-10-31T20:26:14.265Z,29.03
2022-10-31T20:28:43.226Z,28.40
2022-10-31T20:31:12.766Z,32.97
2022-10-31T20:33:39.872Z,30.40
2022-10-31T20:36:08.333Z,26.40
2022-10-31T20:38:38.104Z,28.27
2022-10-31T20:41:06.692Z,29.53
2022-10-31T20:43:34.487Z,35.23
2022-10-31T20:46:05.617Z,31.50
2022-10-31T20:48:32.725Z,28.47
2022-10-31T20:51:04.635Z,26.57
2022-10-31T20:53:32.427Z,30.10
2022-10-31T20:56:15.586Z,31.70
2022-10-31T20:58:43.326Z,27.73
2022-10-31T21:01:21.720Z,28.60
2022-10-31T21:03:49.579Z,28.27
2022-10-31T21:06:18.761Z,28.53
2022-10-31T21:08:45.646Z,28.60
2022-10-31T21:11:15.985Z,29.83
2022-10-31T21:13:44.109Z,25.17
2022-10-31T21:16:13.653Z,25.80
2022-10-31T21:18:42.268Z,24.80
2022-10-31T21:21:15.328Z,27.17
2022-10-31T21:23:43.198Z,29.47
2022-10-31T21:26:17.434Z,29.00
2022-10-31T21:28:44.385Z,30.10
2022-10-31T21:31:14.290Z,24.27
2022-10-31T21:33:42.077Z,29.73
2022-10-31T21:36:09.615Z,26.00
2022-10-31T21:38:36.782Z,34.60
2022-10-31T21:41:12.541Z,24.40
2022-10-31T21:43:44.531Z,26.43
2022-10-31T21:46:17.698Z,23.57
2022-10-31T21:48:45.346Z,28.13
2022-10-31T21:51:18.336Z,24.53
2022-10-31T21:54:03.930Z,26.53
2022-10-31T21:56:31.515Z,25.67
2022-10-31T21:59:00.350Z,25.73
2022-10-31T22:01:29.347Z,23.07
2022-10-31T22:03:56.986Z,25.87
2022-10-31T22:06:26.679Z,21.67
2022-10-31T22:08:54.528Z,23.73
2022-10-31T22:11:21.751Z,25.57
2022-10-31T22:13:49.986Z,22.83
2022-10-31T22:16:22.097Z,21.03
2022-10-31T22:18:53.101Z,18.37
2022-10-31T22:21:23.738Z,18.30
2022-10-31T22:23:52.438Z,18.80
2022-10-31T22:26:19.701Z,13.80
2022-10-31T22:28:50.101Z,16.33
2022-10-31T22:31:19.059Z,13.97
2022-10-31T22:33:47.295Z,12.73
2022-10-31T22:36:17.097Z,17.93
2022-10-31T22:38:44.950Z,11.37
2022-10-31T22:41:17.464Z,17.33
2022-10-31T22:43:44.685Z,13.07
2022-10-31T22:46:14.742Z,15.00
2022-10-31T22:48:44.002Z,15.43
2022-10-31T22:51:25.695Z,16.43
2022-10-31T22:53:53.116Z,19.60
2022-10-31T22:56:21.690Z,18.13
2022-10-31T22:58:49.280Z,17.23
2022-10-31T23:01:25.037Z,14.00
2022-10-31T23:03:52.326Z,11.80
2022-10-31T23:06:24.595Z,12.17
2022-10-31T23:08:52.201Z,11.23
2022-10-31T23:11:28.001Z,10.10
2022-10-31T23:14:16.326Z,12.90
2022-10-31T23:16:55.065Z,9.53
2022-10-31T23:19:31.615Z,11.27
2022-10-31T23:22:01.040Z,9.43
2022-10-31T23:24:37.639Z,9.37
2022-10-31T23:27:09.411Z,9.80
2022-10-31T23:29:47.795Z,7.13
2022-10-31T23:32:28.643Z,7.10
2022-10-31T23:34:57.714Z,8.90
2022-10-31T23:37:27.596Z,10.10
2022-10-31T23:39:55.144Z,10.07
2022-10-31T23:42:22.565Z,7.97
2022-10-31T23:44:49.649Z,10.70
2022-10-31T23:47:17.364Z,8.70
2022-10-31T23:49:44.211Z,7.80
2022-10-31T23:52:11.272Z,6.67
2022-10-31T23:54:38.299Z,6.93
2022-10-31T23:57:05.526Z,10.07
2022-10-31T23:59:32.926Z,7.23
